Time;durP1;ratioP1;P1;durP2;ratioP2;P2;SDS_P1;SDS_P2;PMS_P1;PMS_P2;Temp;Humidity;BMP_temperature;BMP_pressure;BME280_temperature;BME280_humidity;BME280_pressure;Samples;Min_cycle;Max_cycle;Signal;HPM_P1;HPM_P2
2023/02/17 00:00:35;;;;;;;;;;;;;;;4.49;62.85;100682.81;5091911;28;20364;-41
2023/02/17 00:03:00;;;;;;;;;;;;;;;4.23;62.81;100673.81;5091491;28;19966;-41
2023/02/17 00:05:25;;;;;;;;;;;;;;;4.04;62.66;100672.03;5091771;28;19912;-41
2023/02/17 00:07:51;;;;;;;;;;;;;;;4.18;63.31;100671.59;5091573;28;19922;-41
2023/02/17 00:10:16;;;;;;;;;;;;;;;4.17;63.65;100667.31;5091588;28;20011;-42
2023/02/17 00:12:42;;;;;;;;;;;;;;;3.88;63.98;100662.00;5091917;28;19962;-42
2023/02/17 00:15:07;;;;;;;;;;;;;;;3.87;62.62;100668.28;5091573;28;19940;-42
2023/02/17 00:17:32;;;;;;;;;;;;;;;3.75;63.42;100664.94;5091558;28;20030;-42
2023/02/17 00:19:58;;;;;;;;;;;;;;;3.66;64.15;100657.84;5091676;28;19912;-41
2023/02/17 00:22:23;;;;;;;;;;;;;;;3.50;64.57;100658.34;5091503;28;19916;-42
2023/02/17 00:24:48;;;;;;;;;;;;;;;3.27;64.55;100657.75;5091668;28;19916;-42
2023/02/17 00:27:14;;;;;;;;;;;;;;;3.36;65.77;100651.69;5091455;28;20394;-42
2023/02/17 00:29:39;;;;;;;;;;;;;;;3.33;66.27;100657.19;5091464;28;20357;-42
2023/02/17 00:32:05;;;;;;;;;;;;;;;3.33;65.37;100651.94;5091536;28;19912;-42
2023/02/17 00:34:30;;;;;;;;;;;;;;;3.45;65.91;100656.13;5091511;28;20415;-41
2023/02/17 00:36:55;;;;;;;;;;;;;;;3.49;65.11;100654.91;5091243;28;19912;-41
2023/02/17 00:39:21;;;;;;;;;;;;;;;3.28;65.24;100649.72;5090822;28;20301;-40
2023/02/17 00:41:46;;;;;;;;;;;;;;;3.66;64.37;100647.31;5091347;28;19973;-42
2023/02/17 00:44:19;;;;;;;;;;;;;;;3.84;63.34;100644.81;5091501;28;19965;-42
2023/02/17 00:46:45;;;;;;;;;;;;;;;3.39;65.19;100645.31;5091473;28;19912;-42
2023/02/17 00:49:22;;;;;;;;;;;;;;;3.06;66.35;100640.22;5091340;28;20394;-42
2023/02/17 00:51:47;;;;;;;;;;;;;;;3.24;65.50;100629.09;5091039;28;20390;-41
2023/02/17 00:54:13;;;;;;;;;;;;;;;3.08;65.38;100627.75;5091355;28;19980;-42
2023/02/17 00:56:39;;;;;;;;;;;;;;;3.34;65.70;100624.66;5091152;28;19912;-41
2023/02/17 00:59:05;;;;;;;;;;;;;;;3.18;66.51;100622.56;5090931;28;20451;-41
2023/02/17 01:01:30;;;;;;;;;;;;;;;3.09;65.16;100618.94;5091108;28;19912;-42
2023/02/17 01:03:55;;;;;;;;;;;;;;;3.16;64.91;100618.38;5090910;28;20365;-42
2023/02/17 01:06:22;;;;;;;;;;;;;;;3.11;65.76;100618.78;5091098;28;20397;-42
2023/02/17 01:08:48;;;;;;;;;;;;;;;3.08;66.38;100616.41;5091079;28;19913;-41
2023/02/17 01:11:21;;;;;;;;;;;;;;;3.13;65.75;100608.97;5090930;28;19912;-42
2023/02/17 01:13:46;;;;;;;;;;;;;;;3.15;65.98;100604.41;5091032;28;19923;-42
2023/02/17 01:16:26;;;;;;;;;;;;;;;2.97;65.85;100604.22;5091071;28;19912;-42
2023/02/17 01:18:51;;;;;;;;;;;;;;;2.89;66.82;100598.78;5090597;28;20023;-42
2023/02/17 01:21:18;;;;;;;;;;;;;;;2.99;66.96;100596.19;5090965;28;20105;-42
2023/02/17 01:23:43;;;;;;;;;;;;;;;2.80;67.36;100592.53;5090862;28;19920;-41
2023/02/17 01:26:12;;;;;;;;;;;;;;;2.74;66.86;100599.16;5090884;28;19920;-41
2023/02/17 01:28:38;;;;;;;;;;;;;;;2.72;66.41;100595.81;5090913;28;20383;-41
2023/02/17 01:31:07;;;;;;;;;;;;;;;2.64;66.82;100598.25;5090879;28;19950;-41
2023/02/17 01:33:32;;;;;;;;;;;;;;;2.81;66.67;100593.34;5090705;28;20041;-41
2023/02/17 01:36:00;;;;;;;;;;;;;;;2.79;67.93;100585.59;5090703;28;19998;-41
2023/02/17 01:38:26;;;;;;;;;;;;;;;2.64;67.22;100571.16;5090543;28;20026;-41
2023/02/17 01:40:51;;;;;;;;;;;;;;;2.49;68.56;100578.53;5090611;28;19969;-41
2023/02/17 01:43:16;;;;;;;;;;;;;;;2.32;67.53;100579.97;5090567;28;19920;-41
2023/02/17 01:45:48;;;;;;;;;;;;;;;2.26;68.96;100573.44;5090584;28;19970;-41
2023/02/17 01:48:16;;;;;;;;;;;;;;;2.43;68.48;100573.81;5090802;28;20029;-41
2023/02/17 01:50:49;;;;;;;;;;;;;;;2.23;69.83;100572.88;5092111;28;19919;-41
2023/02/17 01:53:18;;;;;;;;;;;;;;;2.33;68.92;100560.63;5094102;28;19969;-41
2023/02/17 01:55:44;;;;;;;;;;;;;;;2.61;67.99;100558.25;5094099;28;19919;-41
2023/02/17 01:58:11;;;;;;;;;;;;;;;2.40;68.71;100563.56;5094079;28;19920;-41
2023/02/17 02:00:36;;;;;;;;;;;;;;;2.42;68.86;100565.13;5094130;28;20019;-41
2023/02/17 02:03:03;;;;;;;;;;;;;;;2.25;68.63;100557.84;5094293;28;20018;-42
2023/02/17 02:05:29;;;;;;;;;;;;;;;2.28;69.22;100557.56;5093975;28;19915;-41
2023/02/17 02:07:55;;;;;;;;;;;;;;;2.22;69.75;100558.91;5094308;28;19977;-42
2023/02/17 02:10:20;;;;;;;;;;;;;;;2.21;69.15;100557.25;5093939;28;19912;-42
2023/02/17 02:12:46;;;;;;;;;;;;;;;2.23;69.28;100552.69;5093937;28;20030;-42
2023/02/17 02:15:13;;;;;;;;;;;;;;;2.50;68.49;100544.25;5093553;28;19916;-41
2023/02/17 02:17:47;;;;;;;;;;;;;;;2.34;68.67;100555.25;5093597;28;20030;-41
2023/02/17 02:20:29;;;;;;;;;;;;;;;2.05;69.14;100552.44;5093790;28;20385;-43
2023/02/17 02:22:54;;;;;;;;;;;;;;;2.37;68.62;100550.69;5093728;28;19927;-42
2023/02/17 02:25:32;;;;;;;;;;;;;;;2.24;69.44;100548.28;5093861;28;19912;-43
2023/02/17 02:28:03;;;;;;;;;;;;;;;2.22;69.03;100544.94;5093695;28;20336;-42
2023/02/17 02:30:47;;;;;;;;;;;;;;;2.04;70.28;100552.59;5093442;28;20006;-42
2023/02/17 02:33:23;;;;;;;;;;;;;;;1.97;70.42;100541.75;5093614;28;19992;-42
2023/02/17 02:35:57;;;;;;;;;;;;;;;2.02;68.97;100544.84;5087515;28;19922;-41
2023/02/17 02:38:27;;;;;;;;;;;;;;;2.26;69.44;100554.22;5087595;28;19920;-42
2023/02/17 02:40:56;;;;;;;;;;;;;;;2.08;69.02;100554.00;5081847;28;19969;-42
2023/02/17 02:43:22;;;;;;;;;;;;;;;2.22;68.50;100558.91;5087539;28;20016;-41
2023/02/17 02:45:48;;;;;;;;;;;;;;;2.34;68.76;100552.63;5084448;28;19982;-42
2023/02/17 02:48:13;;;;;;;;;;;;;;;2.02;68.67;100557.13;5081211;28;19916;-42
2023/02/17 02:50:47;;;;;;;;;;;;;;;2.19;68.94;100567.06;5083095;28;19920;-43
2023/02/17 02:53:15;;;;;;;;;;;;;;;2.30;68.91;100564.38;5080961;28;19912;-41
2023/02/17 02:55:47;;;;;;;;;;;;;;;2.29;70.16;100561.88;5086361;28;20319;-42
2023/02/17 02:58:27;;;;;;;;;;;;;;;2.28;69.11;100565.44;5083452;28;19923;-41
2023/02/17 03:01:04;;;;;;;;;;;;;;;2.12;68.83;100560.66;5090613;28;19923;-42
2023/02/17 03:03:29;;;;;;;;;;;;;;;1.93;69.96;100551.69;5092490;28;19955;-42
2023/02/17 03:05:55;;;;;;;;;;;;;;;1.95;69.53;100549.75;5092767;28;19955;-41
2023/02/17 03:08:23;;;;;;;;;;;;;;;2.12;69.20;100543.09;5092754;28;19990;-41
2023/02/17 03:10:51;;;;;;;;;;;;;;;2.21;68.83;100544.13;5092956;28;19916;-41
2023/02/17 03:13:16;;;;;;;;;;;;;;;2.45;67.76;100545.63;5092763;28;19919;-42
2023/02/17 03:15:42;;;;;;;;;;;;;;;2.28;67.67;100545.25;5092614;28;19912;-41
2023/02/17 03:18:08;;;;;;;;;;;;;;;1.86;69.52;100540.00;5092660;28;19916;-41
2023/02/17 03:20:43;;;;;;;;;;;;;;;2.24;67.68;100538.59;5092723;28;20371;-41
2023/02/17 03:23:09;;;;;;;;;;;;;;;1.98;69.92;100545.22;5092580;28;20011;-42
2023/02/17 03:25:34;;;;;;;;;;;;;;;2.22;67.89;100548.41;5092661;28;20479;-42
2023/02/17 03:28:00;;;;;;;;;;;;;;;2.19;69.22;100540.81;5092643;28;19912;-42
2023/02/17 03:30:25;;;;;;;;;;;;;;;2.31;67.86;100541.53;5092386;28;19916;-42
2023/02/17 03:32:50;;;;;;;;;;;;;;;2.25;68.71;100544.69;5092424;28;20217;-41
2023/02/17 03:35:16;;;;;;;;;;;;;;;2.20;69.39;100541.63;5092482;28;19923;-41
2023/02/17 03:37:41;;;;;;;;;;;;;;;1.92;69.19;100546.56;5092401;28;19966;-41
2023/02/17 03:40:07;;;;;;;;;;;;;;;1.78;70.07;100550.31;5092034;28;20034;-42
2023/02/17 03:42:32;;;;;;;;;;;;;;;1.95;70.13;100549.75;5092095;28;19939;-43
2023/02/17 03:44:58;;;;;;;;;;;;;;;1.81;70.22;100563.22;5092059;28;19923;-42
2023/02/17 03:47:23;;;;;;;;;;;;;;;1.91;70.42;100558.84;5091997;28;19912;-44
2023/02/17 03:49:49;;;;;;;;;;;;;;;2.27;69.49;100555.91;5092218;28;19937;-42
2023/02/17 03:52:15;;;;;;;;;;;;;;;2.26;69.09;100557.69;5091974;28;19911;-42
2023/02/17 03:54:40;;;;;;;;;;;;;;;2.27;69.08;100555.91;5092103;28;20265;-42
2023/02/17 03:57:05;;;;;;;;;;;;;;;2.03;68.11;100558.78;5092127;28;20038;-42
2023/02/17 03:59:31;;;;;;;;;;;;;;;1.72;69.89;100556.91;5091802;28;19923;-42
2023/02/17 04:01:56;;;;;;;;;;;;;;;1.92;70.64;100546.56;5091841;28;20411;-42
2023/02/17 04:04:21;;;;;;;;;;;;;;;2.04;70.55;100553.41;5091767;28;20386;-41
2023/02/17 04:06:46;;;;;;;;;;;;;;;1.97;70.95;100556.69;5092034;28;19912;-42
2023/02/17 04:09:12;;;;;;;;;;;;;;;2.03;69.52;100553.53;5091817;28;20386;-42
2023/02/17 04:11:37;;;;;;;;;;;;;;;2.19;69.52;100545.19;5091915;28;19918;-42
2023/02/17 04:14:02;;;;;;;;;;;;;;;2.35;67.88;100540.31;5090930;28;19919;-43
2023/02/17 04:16:28;;;;;;;;;;;;;;;2.30;67.86;100532.84;5091568;28;20225;-42
2023/02/17 04:18:53;;;;;;;;;;;;;;;2.16;67.48;100543.66;5091402;28;19959;-42
2023/02/17 04:21:18;;;;;;;;;;;;;;;2.15;68.58;100549.88;5091483;28;20006;-41
2023/02/17 04:23:43;;;;;;;;;;;;;;;1.62;70.08;100555.16;5091263;28;20035;-41
2023/02/17 04:26:09;;;;;;;;;;;;;;;1.58;71.05;100545.88;5091446;28;19915;-42
2023/02/17 04:28:36;;;;;;;;;;;;;;;1.54;70.51;100545.28;5091353;28;19919;-41
2023/02/17 04:31:02;;;;;;;;;;;;;;;1.74;71.65;100546.28;5091395;28;19995;-42
2023/02/17 04:33:27;;;;;;;;;;;;;;;1.76;69.54;100555.69;5091348;28;19939;-40
2023/02/17 04:35:58;;;;;;;;;;;;;;;1.77;68.62;100548.66;5091142;28;19916;-42
2023/02/17 04:38:23;;;;;;;;;;;;;;;1.83;71.21;100545.53;5091620;28;20009;-42
2023/02/17 04:40:49;;;;;;;;;;;;;;;1.72;70.13;100543.78;5074263;28;19990;-41
2023/02/17 04:43:14;;;;;;;;;;;;;;;1.99;69.63;100547.72;5070924;28;19924;-41
2023/02/17 04:45:39;;;;;;;;;;;;;;;1.87;69.87;100544.31;5070736;28;19917;-41
2023/02/17 04:48:05;;;;;;;;;;;;;;;2.08;67.73;100533.81;5070554;28;19912;-42
2023/02/17 04:50:30;;;;;;;;;;;;;;;2.05;68.64;100538.50;5070934;28;19920;-42
2023/02/17 04:52:55;;;;;;;;;;;;;;;2.03;68.19;100541.25;5070834;28;20002;-42
2023/02/17 04:55:20;;;;;;;;;;;;;;;2.19;69.01;100538.19;5071022;28;20497;-42
2023/02/17 04:57:46;;;;;;;;;;;;;;;2.10;71.12;100526.63;5070997;28;19923;-42
2023/02/17 05:00:12;;;;;;;;;;;;;;;2.16;68.93;100535.78;5071819;28;19995;-42
2023/02/17 05:02:37;;;;;;;;;;;;;;;2.10;68.79;100525.81;5098479;28;19984;-42
2023/02/17 05:05:02;;;;;;;;;;;;;;;2.34;69.42;100521.09;5110497;28;20387;-42
2023/02/17 05:07:28;;;;;;;;;;;;;;;2.12;66.59;100521.25;5110808;28;19912;-42
2023/02/17 05:09:53;;;;;;;;;;;;;;;2.02;67.34;100530.84;5098814;28;19974;-42
2023/02/17 05:12:18;;;;;;;;;;;;;;;2.45;75.89;100535.09;5085175;28;20368;-41
2023/02/17 05:14:44;;;;;;;;;;;;;;;2.50;67.28;100530.31;5110322;28;19912;-42
2023/02/17 05:17:09;;;;;;;;;;;;;;;1.82;66.71;100538.59;5105682;28;19916;-42
2023/02/17 05:19:34;;;;;;;;;;;;;;;1.11;68.89;100535.69;5090206;28;19916;-42
2023/02/17 05:22:00;;;;;;;;;;;;;;;1.04;69.01;100518.75;5091646;28;19912;-42
2023/02/17 05:24:25;;;;;;;;;;;;;;;1.17;68.88;100530.75;5072621;28;20054;-41
2023/02/17 05:26:50;;;;;;;;;;;;;;;0.90;69.78;100530.34;5113678;28;19919;-42
2023/02/17 05:29:15;;;;;;;;;;;;;;;0.98;70.84;100527.94;5114748;28;19911;-41
2023/02/17 05:31:41;;;;;;;;;;;;;;;1.10;70.22;100541.84;5114518;28;19985;-41
2023/02/17 05:34:06;;;;;;;;;;;;;;;0.95;69.81;100542.16;5114088;28;19918;-41
2023/02/17 05:36:31;;;;;;;;;;;;;;;1.06;72.97;100540.44;5108790;28;19942;-43
2023/02/17 05:38:56;;;;;;;;;;;;;;;1.32;69.67;100546.22;5094964;28;20275;-43
2023/02/17 05:41:22;;;;;;;;;;;;;;;1.30;69.74;100546.34;5094674;28;19973;-42
2023/02/17 05:43:47;;;;;;;;;;;;;;;1.13;69.69;100544.25;5094476;28;20342;-40
2023/02/17 05:46:13;;;;;;;;;;;;;;;1.14;70.42;100543.28;5094118;28;19912;-39
2023/02/17 05:48:38;;;;;;;;;;;;;;;1.75;67.90;100542.69;5093870;28;19916;-41
2023/02/17 05:51:04;;;;;;;;;;;;;;;1.92;67.55;100544.78;5093556;28;19912;-42
2023/02/17 05:53:29;;;;;;;;;;;;;;;1.25;70.17;100545.03;5093330;28;20317;-42
2023/02/17 05:55:55;;;;;;;;;;;;;;;1.78;68.29;100562.63;5089026;28;20368;-41
2023/02/17 05:58:20;;;;;;;;;;;;;;;1.60;68.26;100560.56;5072029;28;20316;-42
2023/02/17 06:00:46;;;;;;;;;;;;;;;1.67;68.88;100561.69;5082037;28;20348;-43
2023/02/17 06:03:11;;;;;;;;;;;;;;;1.95;67.95;100559.44;5087884;28;19916;-42
2023/02/17 06:05:37;;;;;;;;;;;;;;;2.23;66.83;100565.84;5083842;28;19920;-41
2023/02/17 06:08:02;;;;;;;;;;;;;;;2.49;66.05;100560.16;5076400;28;19917;-41
2023/02/17 06:10:28;;;;;;;;;;;;;;;2.23;66.47;100565.84;5082865;28;20412;-40
2023/02/17 06:12:53;;;;;;;;;;;;;;;2.31;65.95;100554.69;5073052;28;19919;-42
2023/02/17 06:15:19;;;;;;;;;;;;;;;2.44;66.08;100570.25;5073036;28;19919;-42
2023/02/17 06:17:44;;;;;;;;;;;;;;;2.31;65.92;100559.94;5073017;28;20369;-41
2023/02/17 06:20:10;;;;;;;;;;;;;;;2.67;65.28;100568.28;5078632;28;19920;-41
2023/02/17 06:22:35;;;;;;;;;;;;;;;2.84;64.58;100569.44;5084117;28;21944;-42
2023/02/17 06:25:00;;;;;;;;;;;;;;;2.93;64.60;100566.84;5083546;28;19947;-42
2023/02/17 06:27:26;;;;;;;;;;;;;;;2.89;64.52;100583.84;5084562;28;19923;-42
2023/02/17 06:29:51;;;;;;;;;;;;;;;2.77;64.44;100576.19;5084117;28;19935;-40
2023/02/17 06:32:16;;;;;;;;;;;;;;;2.87;64.56;100563.91;5084342;28;20117;-41
2023/02/17 06:34:42;;;;;;;;;;;;;;;2.83;65.87;100571.22;5085439;28;19920;-41
2023/02/17 06:37:07;;;;;;;;;;;;;;;3.12;63.83;100575.72;5081448;28;20320;-42
2023/02/17 06:39:32;;;;;;;;;;;;;;;2.97;63.53;100577.94;5083253;28;19973;-42
2023/02/17 06:41:58;;;;;;;;;;;;;;;3.18;64.08;100571.72;5081317;28;20029;-41
2023/02/17 06:44:23;;;;;;;;;;;;;;;3.12;64.51;100581.84;5081980;28;19939;-40
2023/02/17 06:46:48;;;;;;;;;;;;;;;3.02;64.90;100582.78;5075567;28;19920;-40
2023/02/17 06:49:14;;;;;;;;;;;;;;;2.61;65.44;100574.88;5071268;28;19913;-41
2023/02/17 06:51:39;;;;;;;;;;;;;;;3.11;63.86;100580.16;5073140;28;19920;-40
2023/02/17 06:54:05;;;;;;;;;;;;;;;3.28;63.96;100583.13;5070846;28;19920;-41
2023/02/17 06:56:30;;;;;;;;;;;;;;;3.49;62.75;100583.84;5070590;28;20410;-42
2023/02/17 06:58:56;;;;;;;;;;;;;;;3.86;61.86;100588.41;5072226;28;19922;-42
2023/02/17 07:01:24;;;;;;;;;;;;;;;3.79;61.86;100586.47;5072102;28;19912;-42
2023/02/17 07:03:50;;;;;;;;;;;;;;;4.22;60.07;100588.66;5072484;28;19918;-41
2023/02/17 07:06:15;;;;;;;;;;;;;;;4.14;60.41;100591.16;5072235;28;19912;-44
2023/02/17 07:08:40;;;;;;;;;;;;;;;4.07;60.39;100584.81;5072331;28;19912;-42
2023/02/17 07:11:06;;;;;;;;;;;;;;;4.17;60.48;100580.38;5072309;28;20094;-41
2023/02/17 07:13:32;;;;;;;;;;;;;;;4.29;59.51;100581.84;5072708;28;20350;-41
2023/02/17 07:15:57;;;;;;;;;;;;;;;4.44;60.13;100586.69;5072286;28;19962;-42
2023/02/17 07:18:22;;;;;;;;;;;;;;;4.75;58.92;100581.16;5072197;28;20019;-42
2023/02/17 07:20:47;;;;;;;;;;;;;;;4.66;59.09;100583.72;5072216;28;19912;-41
2023/02/17 07:23:13;;;;;;;;;;;;;;;4.96;58.38;100559.81;5075137;28;19955;-41
2023/02/17 07:25:38;;;;;;;;;;;;;;;5.36;56.97;100571.81;5083827;28;19916;-41
2023/02/17 07:28:03;;;;;;;;;;;;;;;5.32;56.76;100579.19;5081232;28;19969;-43
2023/02/17 07:30:29;;;;;;;;;;;;;;;5.70;55.86;100571.97;5080868;28;19928;-40
2023/02/17 07:32:54;;;;;;;;;;;;;;;5.47;56.44;100579.53;5081299;28;20348;-40
2023/02/17 07:35:19;;;;;;;;;;;;;;;5.40;57.02;100579.28;5092276;28;20380;-41
2023/02/17 07:37:45;;;;;;;;;;;;;;;5.27;56.91;100573.53;5092773;28;19916;-43
2023/02/17 07:40:10;;;;;;;;;;;;;;;4.96;58.68;100576.47;5092498;28;19912;-42
2023/02/17 07:42:35;;;;;;;;;;;;;;;5.53;56.58;100576.28;5092088;28;19916;-41
2023/02/17 07:45:01;;;;;;;;;;;;;;;5.99;55.61;100574.38;5092440;28;20387;-41
2023/02/17 07:47:26;;;;;;;;;;;;;;;6.02;55.00;100578.56;5092230;28;19916;-41
2023/02/17 07:49:51;;;;;;;;;;;;;;;6.06;55.07;100577.25;5090538;28;20267;-42
2023/02/17 07:52:18;;;;;;;;;;;;;;;6.53;54.88;100584.00;5090573;28;19916;-40
2023/02/17 07:54:43;;;;;;;;;;;;;;;6.86;53.63;100585.00;5090968;28;20070;-41
2023/02/17 07:57:09;;;;;;;;;;;;;;;7.07;52.86;100595.19;5084841;28;20013;-40
2023/02/17 07:59:34;;;;;;;;;;;;;;;6.68;53.21;100587.72;5079262;28;19989;-42
2023/02/17 08:01:59;;;;;;;;;;;;;;;6.63;53.38;100590.84;5082571;28;19918;-41
2023/02/17 08:04:24;;;;;;;;;;;;;;;6.67;52.95;100595.84;5082037;28;20232;-41
2023/02/17 08:06:50;;;;;;;;;;;;;;;6.91;52.67;100573.94;5083745;28;19955;-42
2023/02/17 08:14:43;;;;;;;;;;;;;;;7.41;51.90;100573.13;5085225;28;19961;-42
2023/02/17 08:17:08;;;;;;;;;;;;;;;7.33;51.69;100578.38;5090324;28;19912;-43
2023/02/17 08:19:34;;;;;;;;;;;;;;;7.52;51.33;100577.25;5092023;28;19994;-42
2023/02/17 08:21:59;;;;;;;;;;;;;;;7.57;51.98;100582.91;5091960;28;19919;-42
2023/02/17 08:24:25;;;;;;;;;;;;;;;7.91;50.36;100579.28;5091686;28;19920;-41
2023/02/17 08:26:51;;;;;;;;;;;;;;;8.00;49.93;100592.38;5089970;28;20344;-42
2023/02/17 08:29:19;;;;;;;;;;;;;;;7.64;51.09;100594.50;5091281;28;19969;-41
2023/02/17 08:31:44;;;;;;;;;;;;;;;7.35;52.01;100585.19;5091231;28;19916;-41
2023/02/17 08:34:10;;;;;;;;;;;;;;;7.83;50.95;100593.38;5091638;28;19965;-42
2023/02/17 08:36:36;;;;;;;;;;;;;;;8.02;50.03;100586.91;5091301;28;19961;-42
2023/02/17 08:39:02;;;;;;;;;;;;;;;8.47;50.24;100596.16;5091276;28;20393;-42
2023/02/17 08:41:31;;;;;;;;;;;;;;;8.96;47.63;100595.19;5091420;28;19916;-42
2023/02/17 08:43:57;;;;;;;;;;;;;;;8.98;47.52;100586.06;5091530;28;19916;-42
2023/02/17 08:46:23;;;;;;;;;;;;;;;9.65;46.82;100574.06;5091365;28;20042;-42
2023/02/17 08:48:48;;;;;;;;;;;;;;;9.45;46.38;100573.69;5091378;28;19969;-42
2023/02/17 08:51:15;;;;;;;;;;;;;;;9.71;46.47;100578.69;5091392;28;19981;-42
2023/02/17 08:53:41;;;;;;;;;;;;;;;9.61;46.06;100577.25;5091335;28;19919;-43
2023/02/17 08:56:06;;;;;;;;;;;;;;;9.85;46.37;100578.91;5091347;28;19947;-42
2023/02/17 08:58:32;;;;;;;;;;;;;;;9.91;45.65;100578.19;5091228;28;19959;-41
2023/02/17 09:00:57;;;;;;;;;;;;;;;10.02;45.65;100577.78;5093100;28;19948;-41
2023/02/17 09:03:22;;;;;;;;;;;;;;;10.30;45.87;100583.38;5095757;28;19934;-41
2023/02/17 09:05:48;;;;;;;;;;;;;;;10.20;44.88;100572.13;5095850;28;19912;-40
2023/02/17 09:08:13;;;;;;;;;;;;;;;10.90;43.36;100570.06;5095705;28;19912;-41
2023/02/17 09:10:39;;;;;;;;;;;;;;;11.43;42.46;100561.88;5095871;28;19912;-42
2023/02/17 09:13:04;;;;;;;;;;;;;;;11.87;42.39;100561.69;5096103;28;19951;-45
2023/02/17 09:15:30;;;;;;;;;;;;;;;12.21;41.26;100570.00;5095742;28;19912;-43
2023/02/17 09:17:55;;;;;;;;;;;;;;;12.09;40.25;100551.84;5095517;28;19916;-44
2023/02/17 09:20:20;;;;;;;;;;;;;;;11.91;41.30;100564.81;5095294;28;20036;-40
2023/02/17 09:22:46;;;;;;;;;;;;;;;12.16;41.39;100551.06;5095191;28;19920;-42
2023/02/17 09:25:11;;;;;;;;;;;;;;;11.97;40.88;100561.38;5095104;28;19980;-42
2023/02/17 09:27:36;;;;;;;;;;;;;;;12.07;41.06;100558.38;5094722;28;19912;-41
2023/02/17 09:30:02;;;;;;;;;;;;;;;12.12;40.66;100558.63;5095114;28;19978;-41
2023/02/17 09:32:28;;;;;;;;;;;;;;;12.46;40.45;100549.00;5094838;28;19916;-42
2023/02/17 09:34:53;;;;;;;;;;;;;;;12.25;39.75;100523.22;5095355;28;20341;-42
2023/02/17 09:37:19;;;;;;;;;;;;;;;12.99;38.85;100553.81;5095021;28;20350;-41
2023/02/17 09:39:45;;;;;;;;;;;;;;;13.19;37.18;100548.50;5094713;28;20381;-42
2023/02/17 09:42:21;;;;;;;;;;;;;;;13.64;35.55;100544.31;5094905;28;20026;-41
2023/02/17 09:44:54;;;;;;;;;;;;;;;13.85;33.55;100535.28;5094212;28;19916;-42
2023/02/17 09:47:23;;;;;;;;;;;;;;;14.17;32.12;100521.28;5094546;28;19923;-42
2023/02/17 09:50:06;;;;;;;;;;;;;;;14.40;30.63;100526.19;5079875;28;19921;-42
2023/02/17 09:52:31;;;;;;;;;;;;;;;14.79;29.51;100536.00;5074470;28;19912;-43
2023/02/17 09:55:02;;;;;;;;;;;;;;;15.45;28.85;100525.94;5074106;28;19934;-41
2023/02/17 09:57:30;;;;;;;;;;;;;;;15.77;27.89;100526.78;5073832;28;20392;-42
2023/02/17 10:00:04;;;;;;;;;;;;;;;16.37;27.00;100520.88;5073838;28;20015;-43
2023/02/17 10:02:35;;;;;;;;;;;;;;;16.91;27.02;100509.53;5073952;28;19916;-42
2023/02/17 10:05:04;;;;;;;;;;;;;;;16.95;26.38;100499.97;5073272;28;19912;-42
2023/02/17 10:07:32;;;;;;;;;;;;;;;17.63;26.44;100508.69;5073716;28;19962;-43
2023/02/17 10:10:03;;;;;;;;;;;;;;;17.93;25.56;100492.50;5073607;28;19924;-42
2023/02/17 10:12:36;;;;;;;;;;;;;;;18.23;25.35;100486.16;5072168;28;19974;-42
2023/02/17 10:15:16;;;;;;;;;;;;;;;17.58;25.15;100480.63;5073235;28;19970;-41
2023/02/17 10:18:00;;;;;;;;;;;;;;;17.55;25.24;100481.09;5072847;28;19916;-44
2023/02/17 10:20:34;;;;;;;;;;;;;;;17.69;25.55;100478.19;5072853;28;19912;-42
2023/02/17 10:23:09;;;;;;;;;;;;;;;18.19;24.99;100468.84;5072764;28;20030;-42
2023/02/17 10:25:53;;;;;;;;;;;;;;;18.25;24.94;100468.72;5073134;28;19920;-43
2023/02/17 10:28:41;;;;;;;;;;;;;;;19.00;23.72;100464.31;5073469;28;20374;-43
2023/02/17 10:31:24;;;;;;;;;;;;;;;18.61;24.07;100450.59;5070003;28;19913;-43
2023/02/17 10:33:58;;;;;;;;;;;;;;;18.67;23.76;100456.91;5072982;28;20002;-42
2023/02/17 10:36:27;;;;;;;;;;;;;;;18.64;23.66;100458.19;5072731;28;19920;-42
2023/02/17 10:38:55;;;;;;;;;;;;;;;18.66;23.91;100455.28;5072460;28;20308;-42
2023/02/17 10:41:26;;;;;;;;;;;;;;;19.07;23.67;100439.88;5072676;28;20388;-41
2023/02/17 10:43:51;;;;;;;;;;;;;;;19.38;23.63;100445.78;5074477;28;19920;-42
2023/02/17 10:46:22;;;;;;;;;;;;;;;19.53;23.53;100449.56;5081808;28;20314;-42
2023/02/17 10:48:52;;;;;;;;;;;;;;;19.26;23.34;100443.16;5082665;28;20407;-41
2023/02/17 10:51:21;;;;;;;;;;;;;;;19.09;22.89;100435.88;5084600;28;19912;-42
2023/02/17 10:53:50;;;;;;;;;;;;;;;19.47;22.47;100434.34;5085528;28;19916;-41
2023/02/17 10:56:24;;;;;;;;;;;;;;;19.53;22.77;100437.94;5093343;28;19934;-42
2023/02/17 10:59:05;;;;;;;;;;;;;;;19.29;22.70;100434.59;5092223;28;20272;-41
2023/02/17 11:01:31;;;;;;;;;;;;;;;20.04;22.11;100427.91;5080669;28;19962;-43
2023/02/17 11:04:01;;;;;;;;;;;;;;;20.43;21.88;100414.38;5072148;28;19919;-42
2023/02/17 11:06:26;;;;;;;;;;;;;;;19.95;21.46;100418.59;5071953;28;19962;-42
2023/02/17 11:08:55;;;;;;;;;;;;;;;20.25;21.24;100411.97;5071557;28;19920;-41
2023/02/17 11:11:24;;;;;;;;;;;;;;;19.63;21.70;100418.38;5088185;28;20025;-42
2023/02/17 11:13:55;;;;;;;;;;;;;;;19.95;21.18;100418.59;5092474;28;19961;-41
2023/02/17 11:16:25;;;;;;;;;;;;;;;19.82;21.30;100413.56;5091436;28;19912;-40
2023/02/17 11:18:51;;;;;;;;;;;;;;;19.97;21.33;100413.78;5090698;28;19999;-40
2023/02/17 11:21:16;;;;;;;;;;;;;;;19.56;21.45;100396.16;5090941;28;19912;-41
2023/02/17 11:23:58;;;;;;;;;;;;;;;19.80;21.78;100402.19;5091080;28;19920;-43
2023/02/17 11:26:26;;;;;;;;;;;;;;;19.42;21.60;100396.50;5091613;28;20010;-40
2023/02/17 11:28:51;;;;;;;;;;;;;;;19.59;21.60;100392.94;5089833;28;19958;-43
2023/02/17 11:31:27;;;;;;;;;;;;;;;20.21;21.74;100395.44;5089985;28;19944;-43
2023/02/17 11:33:53;;;;;;;;;;;;;;;20.33;21.12;100380.97;5091147;28;19919;-41
2023/02/17 11:36:24;;;;;;;;;;;;;;;20.40;20.63;100387.03;5091638;28;19912;-41
2023/02/17 11:38:49;;;;;;;;;;;;;;;20.20;20.82;100387.59;5091626;28;19920;-43
2023/02/17 11:41:14;;;;;;;;;;;;;;;20.00;20.82;100380.88;5091949;28;19916;-40
2023/02/17 11:43:50;;;;;;;;;;;;;;;20.11;19.90;100376.41;5091831;28;20386;-41
2023/02/17 11:46:24;;;;;;;;;;;;;;;20.40;19.17;100373.50;5089947;28;20360;-40
2023/02/17 11:48:52;;;;;;;;;;;;;;;20.43;19.28;100364.91;5092505;28;20345;-40
2023/02/17 11:51:20;;;;;;;;;;;;;;;20.41;19.21;100364.31;5092172;28;20055;-43
2023/02/17 11:53:46;;;;;;;;;;;;;;;20.72;19.17;100367.38;5091870;28;19912;-41
2023/02/17 11:56:34;;;;;;;;;;;;;;;20.72;19.17;100364.69;5091427;28;19969;-41
2023/02/17 11:59:02;;;;;;;;;;;;;;;20.57;18.40;100365.31;5090179;28;20311;-41
2023/02/17 12:01:46;;;;;;;;;;;;;;;20.65;18.45;100365.69;5091691;28;19912;-43
2023/02/17 12:04:22;;;;;;;;;;;;;;;21.37;17.60;100357.38;5091311;28;19934;-41
2023/02/17 12:06:50;;;;;;;;;;;;;;;21.50;17.47;100362.38;5091635;28;19916;-41
2023/02/17 12:09:36;;;;;;;;;;;;;;;21.70;17.46;100348.13;5091133;28;20318;-41
2023/02/17 12:12:04;;;;;;;;;;;;;;;20.91;18.55;100346.19;5069059;28;20076;-40
2023/02/17 12:14:38;;;;;;;;;;;;;;;20.73;18.79;100350.06;5091595;28;19912;-40
2023/02/17 12:17:14;;;;;;;;;;;;;;;20.70;18.65;100349.53;5090927;28;19912;-41
2023/02/17 12:19:40;;;;;;;;;;;;;;;20.66;18.22;100343.00;5088833;28;19920;-46
2023/02/17 12:22:08;;;;;;;;;;;;;;;20.74;18.50;100336.31;5070586;28;19943;-46
2023/02/17 12:24:42;;;;;;;;;;;;;;;20.88;18.29;100342.91;5070075;28;19921;-47
2023/02/17 12:27:18;;;;;;;;;;;;;;;20.96;18.31;100341.66;5071209;28;19912;-47
2023/02/17 12:29:59;;;;;;;;;;;;;;;20.74;18.33;100327.38;5070590;28;20015;-46
2023/02/17 12:32:47;;;;;;;;;;;;;;;20.82;18.62;100329.59;5070705;28;19912;-47
2023/02/17 12:35:16;;;;;;;;;;;;;;;20.74;18.27;100336.31;5064090;28;19913;-46
2023/02/17 12:37:52;;;;;;;;;;;;;;;21.02;18.36;100340.59;5070552;28;20023;-46
2023/02/17 12:40:29;;;;;;;;;;;;;;;20.80;17.43;100329.84;5070622;28;19962;-46
2023/02/17 12:42:59;;;;;;;;;;;;;;;20.85;17.49;100321.00;5070229;28;20008;-48
2023/02/17 12:45:29;;;;;;;;;;;;;;;21.07;17.17;100313.56;5069718;28;20372;-46
2023/02/17 12:48:03;;;;;;;;;;;;;;;21.09;17.34;100316.88;5070281;28;19969;-46
2023/02/17 12:50:34;;;;;;;;;;;;;;;21.12;17.28;100312.00;5070474;28;20024;-46